sensor_id;sensor_type;location;lat;lon;timestamp;pressure;altitude;pressure_sealevel;temperature;humidity
47218;BME280;47282;53.362;-2.222;2022-09-17T00:01:38;101452.73;;;4.85;51.52
47218;BME280;47282;53.362;-2.222;2022-09-17T00:04:06;101454.48;;;4.59;51.54
47218;BME280;47282;53.362;-2.222;2022-09-17T00:06:35;101451.33;;;4.79;51.77
47218;BME280;47282;53.362;-2.222;2022-09-17T00:09:05;101448.59;;;4.25;51.94
47218;BME280;47282;53.362;-2.222;2022-09-17T00:11:36;101448.40;;;4.49;52.09
47218;BME280;47282;53.362;-2.222;2022-09-17T00:14:07;101448.61;;;4.18;52.18
47218;BME280;47282;53.362;-2.222;2022-09-17T00:16:37;101447.46;;;4.60;52.22
47218;BME280;47282;53.362;-2.222;2022-09-17T00:19:09;101449.16;;;4.55;52.26
47218;BME280;47282;53.362;-2.222;2022-09-17T00:21:39;101449.59;;;4.26;52.26
47218;BME280;47282;53.362;-2.222;2022-09-17T00:24:10;101447.60;;;4.21;52.39
47218;BME280;47282;53.362;-2.222;2022-09-17T00:26:39;101448.90;;;4.39;52.48
47218;BME280;47282;53.362;-2.222;2022-09-17T00:29:08;101451.64;;;4.34;52.62
47218;BME280;47282;53.362;-2.222;2022-09-17T00:31:36;101452.97;;;4.31;52.60
47218;BME280;47282;53.362;-2.222;2022-09-17T00:34:05;101451.57;;;4.30;52.75
47218;BME280;47282;53.362;-2.222;2022-09-17T00:36:35;101451.58;;;4.30;52.85
47218;BME280;47282;53.362;-2.222;2022-09-17T00:39:05;101447.52;;;4.29;52.86
47218;BME280;47282;53.362;-2.222;2022-09-17T00:41:35;101446.76;;;4.26;52.96
47218;BME280;47282;53.362;-2.222;2022-09-17T00:44:41;101442.25;;;4.21;52.98
47218;BME280;47282;53.362;-2.222;2022-09-17T00:47:21;101448.56;;;4.37;53.13
47218;BME280;47282;53.362;-2.222;2022-09-17T00:49:53;101452.81;;;4.10;53.26
47218;BME280;47282;53.362;-2.222;2022-09-17T00:52:26;101453.92;;;4.09;53.27
47218;BME280;47282;53.362;-2.222;2022-09-17T00:55:00;101458.56;;;4.07;53.33
47218;BME280;47282;53.362;-2.222;2022-09-17T00:57:30;101460.78;;;4.28;53.53
47218;BME280;47282;53.362;-2.222;2022-09-17T00:59:58;101458.70;;;4.03;53.59
47218;BME280;47282;53.362;-2.222;2022-09-17T01:02:26;101457.57;;;4.00;53.65
47218;BME280;47282;53.362;-2.222;2022-09-17T01:04:55;101459.30;;;3.97;53.61
47218;BME280;47282;53.362;-2.222;2022-09-17T01:07:39;101453.81;;;3.91;53.66
47218;BME280;47282;53.362;-2.222;2022-09-17T01:10:20;101450.21;;;3.86;53.67
47218;BME280;47282;53.362;-2.222;2022-09-17T01:13:01;101451.19;;;3.78;53.76
47218;BME280;47282;53.362;-2.222;2022-09-17T01:15:39;101453.21;;;3.76;53.78
47218;BME280;47282;53.362;-2.222;2022-09-17T01:18:18;101457.30;;;3.72;53.83
47218;BME280;47282;53.362;-2.222;2022-09-17T01:21:23;101463.15;;;3.69;53.75
47218;BME280;47282;53.362;-2.222;2022-09-17T01:24:44;101465.70;;;3.87;53.80
47218;BME280;47282;53.362;-2.222;2022-09-17T01:28:09;101464.95;;;3.81;53.90
47218;BME280;47282;53.362;-2.222;2022-09-17T01:31:03;101464.55;;;3.53;54.01
47218;BME280;47282;53.362;-2.222;2022-09-17T01:33:40;101460.28;;;3.48;54.17
47218;BME280;47282;53.362;-2.222;2022-09-17T01:36:18;101455.27;;;3.65;54.29
47218;BME280;47282;53.362;-2.222;2022-09-17T01:38:53;101451.32;;;3.60;54.30
47218;BME280;47282;53.362;-2.222;2022-09-17T01:41:31;101447.31;;;3.34;54.34
47218;BME280;47282;53.362;-2.222;2022-09-17T01:44:09;101450.52;;;3.50;54.49
47218;BME280;47282;53.362;-2.222;2022-09-17T01:46:42;101454.54;;;3.48;54.60
47218;BME280;47282;53.362;-2.222;2022-09-17T01:49:12;101458.02;;;3.22;54.69
47218;BME280;47282;53.362;-2.222;2022-09-17T01:51:45;101458.38;;;3.41;54.78
47218;BME280;47282;53.362;-2.222;2022-09-17T01:54:24;101458.50;;;3.66;54.79
47218;BME280;47282;53.362;-2.222;2022-09-17T01:56:57;101462.35;;;3.35;54.80
47218;BME280;47282;53.362;-2.222;2022-09-17T01:59:28;101461.05;;;3.59;54.85
47218;BME280;47282;53.362;-2.222;2022-09-17T02:02:02;101459.14;;;3.07;55.01
47218;BME280;47282;53.362;-2.222;2022-09-17T02:04:37;101458.29;;;3.27;55.02
47218;BME280;47282;53.362;-2.222;2022-09-17T02:07:12;101462.57;;;3.49;55.13
47218;BME280;47282;53.362;-2.222;2022-09-17T02:09:44;101459.68;;;3.17;55.23
47218;BME280;47282;53.362;-2.222;2022-09-17T02:12:19;101461.43;;;3.39;55.29
47218;BME280;47282;53.362;-2.222;2022-09-17T02:14:50;101461.92;;;3.34;55.31
47218;BME280;47282;53.362;-2.222;2022-09-17T02:17:23;101459.10;;;3.32;55.37
47218;BME280;47282;53.362;-2.222;2022-09-17T02:19:54;101464.69;;;3.29;55.46
47218;BME280;47282;53.362;-2.222;2022-09-17T02:22:27;101468.66;;;3.27;55.54
47218;BME280;47282;53.362;-2.222;2022-09-17T02:25:02;101469.22;;;3.24;55.59
47218;BME280;47282;53.362;-2.222;2022-09-17T02:27:43;101470.44;;;3.21;55.63
47218;BME280;47282;53.362;-2.222;2022-09-17T02:30:15;101471.38;;;3.18;55.70
47218;BME280;47282;53.362;-2.222;2022-09-17T02:32:58;101467.40;;;3.15;55.78
47218;BME280;47282;53.362;-2.222;2022-09-17T02:35:30;101463.74;;;3.10;55.90
47218;BME280;47282;53.362;-2.222;2022-09-17T02:37:58;101465.09;;;2.81;55.85
47218;BME280;47282;53.362;-2.222;2022-09-17T02:40:28;101460.92;;;2.76;55.91
47218;BME280;47282;53.362;-2.222;2022-09-17T02:43:09;101464.02;;;2.96;55.99
47218;BME280;47282;53.362;-2.222;2022-09-17T02:45:47;101463.81;;;2.91;56.06
47218;BME280;47282;53.362;-2.222;2022-09-17T02:48:30;101465.45;;;2.89;56.04
47218;BME280;47282;53.362;-2.222;2022-09-17T02:51:12;101462.25;;;2.86;55.92
47218;BME280;47282;53.362;-2.222;2022-09-17T02:53:48;101465.04;;;2.82;56.01
47218;BME280;47282;53.362;-2.222;2022-09-17T02:56:32;101462.29;;;2.78;56.14
47218;BME280;47282;53.362;-2.222;2022-09-17T02:59:12;101466.55;;;2.74;56.24
47218;BME280;47282;53.362;-2.222;2022-09-17T03:01:46;101467.17;;;2.70;56.36
47218;BME280;47282;53.362;-2.222;2022-09-17T03:04:17;101466.69;;;2.65;56.50
47218;BME280;47282;53.362;-2.222;2022-09-17T03:06:46;101465.82;;;2.62;56.53
47218;BME280;47282;53.362;-2.222;2022-09-17T03:09:15;101467.07;;;2.58;56.59
47218;BME280;47282;53.362;-2.222;2022-09-17T03:11:43;101467.97;;;2.57;56.60
47218;BME280;47282;53.362;-2.222;2022-09-17T03:14:11;101470.91;;;2.55;56.60
47218;BME280;47282;53.362;-2.222;2022-09-17T03:16:39;101469.48;;;2.52;56.48
47218;BME280;47282;53.362;-2.222;2022-09-17T03:19:07;101473.04;;;2.49;56.55
47218;BME280;47282;53.362;-2.222;2022-09-17T03:21:35;101470.66;;;2.45;56.61
47218;BME280;47282;53.362;-2.222;2022-09-17T03:24:03;101471.44;;;2.42;56.58
47218;BME280;47282;53.362;-2.222;2022-09-17T03:26:32;101475.94;;;2.37;56.67
47218;BME280;47282;53.362;-2.222;2022-09-17T03:29:00;101475.27;;;2.83;56.66
47218;BME280;47282;53.362;-2.222;2022-09-17T03:31:28;101473.77;;;2.32;56.59
47218;BME280;47282;53.362;-2.222;2022-09-17T03:33:56;101474.29;;;2.28;56.69
47218;BME280;47282;53.362;-2.222;2022-09-17T03:36:24;101471.73;;;2.46;56.77
47218;BME280;47282;53.362;-2.222;2022-09-17T03:38:53;101471.61;;;2.22;56.90
47218;BME280;47282;53.362;-2.222;2022-09-17T03:41:21;101471.85;;;2.18;57.05
47218;BME280;47282;53.362;-2.222;2022-09-17T03:43:50;101474.08;;;2.16;57.12
47218;BME280;47282;53.362;-2.222;2022-09-17T03:46:20;101474.62;;;2.36;57.20
47218;BME280;47282;53.362;-2.222;2022-09-17T03:48:48;101479.89;;;2.33;57.31
47218;BME280;47282;53.362;-2.222;2022-09-17T03:51:16;101486.02;;;2.59;57.37
47218;BME280;47282;53.362;-2.222;2022-09-17T03:53:44;101489.44;;;2.29;57.40
47218;BME280;47282;53.362;-2.222;2022-09-17T03:56:12;101486.97;;;2.26;57.32
47218;BME280;47282;53.362;-2.222;2022-09-17T03:58:40;101490.47;;;1.97;57.33
47218;BME280;47282;53.362;-2.222;2022-09-17T04:01:09;101485.88;;;2.39;57.31
47218;BME280;47282;53.362;-2.222;2022-09-17T04:03:37;101486.06;;;2.07;57.33
47218;BME280;47282;53.362;-2.222;2022-09-17T04:06:05;101485.98;;;1.78;57.46
47218;BME280;47282;53.362;-2.222;2022-09-17T04:08:33;101488.23;;;2.24;57.54
47218;BME280;47282;53.362;-2.222;2022-09-17T04:11:01;101485.83;;;1.95;57.58
47218;BME280;47282;53.362;-2.222;2022-09-17T04:13:29;101481.97;;;2.20;57.53
47218;BME280;47282;53.362;-2.222;2022-09-17T04:15:57;101480.66;;;2.16;57.49
47218;BME280;47282;53.362;-2.222;2022-09-17T04:18:25;101478.62;;;1.87;57.53
47218;BME280;47282;53.362;-2.222;2022-09-17T04:20:53;101481.93;;;1.84;57.56
47218;BME280;47282;53.362;-2.222;2022-09-17T04:23:22;101482.07;;;2.08;57.59
47218;BME280;47282;53.362;-2.222;2022-09-17T04:25:50;101485.27;;;2.06;57.55
47218;BME280;47282;53.362;-2.222;2022-09-17T04:28:18;101484.65;;;2.03;57.62
47218;BME280;47282;53.362;-2.222;2022-09-17T04:30:47;101481.94;;;2.00;57.69
47218;BME280;47282;53.362;-2.222;2022-09-17T04:33:15;101479.76;;;1.98;57.71
47218;BME280;47282;53.362;-2.222;2022-09-17T04:35:43;101480.78;;;1.95;57.79
47218;BME280;47282;53.362;-2.222;2022-09-17T04:38:11;101487.76;;;1.95;57.88
47218;BME280;47282;53.362;-2.222;2022-09-17T04:40:39;101483.87;;;1.92;57.94
47218;BME280;47282;53.362;-2.222;2022-09-17T04:43:08;101477.92;;;2.14;58.01
47218;BME280;47282;53.362;-2.222;2022-09-17T04:45:36;101477.66;;;1.88;58.05
47218;BME280;47282;53.362;-2.222;2022-09-17T04:48:04;101476.90;;;1.36;58.17
47218;BME280;47282;53.362;-2.222;2022-09-17T04:50:32;101478.75;;;1.83;58.24
47218;BME280;47282;53.362;-2.222;2022-09-17T04:53:00;101484.12;;;1.84;58.33
47218;BME280;47282;53.362;-2.222;2022-09-17T04:55:28;101483.18;;;1.83;58.43
47218;BME280;47282;53.362;-2.222;2022-09-17T04:57:56;101481.51;;;2.05;58.46
47218;BME280;47282;53.362;-2.222;2022-09-17T05:00:24;101479.38;;;1.82;58.52
47218;BME280;47282;53.362;-2.222;2022-09-17T05:02:53;101478.03;;;1.82;58.54
47218;BME280;47282;53.362;-2.222;2022-09-17T05:05:22;101477.56;;;1.82;58.58
47218;BME280;47282;53.362;-2.222;2022-09-17T05:07:51;101475.61;;;1.83;58.59
47218;BME280;47282;53.362;-2.222;2022-09-17T05:10:21;101470.34;;;1.80;58.58
47218;BME280;47282;53.362;-2.222;2022-09-17T05:12:50;101468.85;;;1.78;58.58
47218;BME280;47282;53.362;-2.222;2022-09-17T05:15:19;101472.19;;;1.96;58.62
47218;BME280;47282;53.362;-2.222;2022-09-17T05:17:48;101470.70;;;1.44;58.72
47218;BME280;47282;53.362;-2.222;2022-09-17T05:20:17;101470.91;;;1.70;58.77
47218;BME280;47282;53.362;-2.222;2022-09-17T05:22:46;101468.63;;;1.69;58.81
47218;BME280;47282;53.362;-2.222;2022-09-17T05:25:16;101469.47;;;1.42;58.83
47218;BME280;47282;53.362;-2.222;2022-09-17T05:27:45;101470.99;;;1.71;58.92
47218;BME280;47282;53.362;-2.222;2022-09-17T05:30:13;101470.02;;;1.73;58.93
47218;BME280;47282;53.362;-2.222;2022-09-17T05:32:41;101470.60;;;1.74;58.97
47218;BME280;47282;53.362;-2.222;2022-09-17T05:35:09;101470.54;;;1.74;58.96
47218;BME280;47282;53.362;-2.222;2022-09-17T05:37:38;101471.73;;;1.74;58.97
47218;BME280;47282;53.362;-2.222;2022-09-17T05:40:08;101474.63;;;1.98;58.98
47218;BME280;47282;53.362;-2.222;2022-09-17T05:42:36;101474.56;;;1.52;58.91
47218;BME280;47282;53.362;-2.222;2022-09-17T05:45:05;101473.66;;;1.81;58.92
47218;BME280;47282;53.362;-2.222;2022-09-17T05:47:33;101477.12;;;1.84;58.94
47218;BME280;47282;53.362;-2.222;2022-09-17T05:50:02;101477.88;;;1.87;58.92
47218;BME280;47282;53.362;-2.222;2022-09-17T05:52:30;101479.28;;;1.91;58.86
47218;BME280;47282;53.362;-2.222;2022-09-17T05:54:58;101481.16;;;1.95;58.84
47218;BME280;47282;53.362;-2.222;2022-09-17T05:57:28;101484.00;;;1.99;58.78
47218;BME280;47282;53.362;-2.222;2022-09-17T05:59:56;101484.40;;;2.04;58.76
47218;BME280;47282;53.362;-2.222;2022-09-17T06:02:24;101484.34;;;2.12;58.69
47218;BME280;47282;53.362;-2.222;2022-09-17T06:04:52;101486.72;;;2.26;58.61
47218;BME280;47282;53.362;-2.222;2022-09-17T06:07:20;101490.32;;;2.39;58.59
47218;BME280;47282;53.362;-2.222;2022-09-17T06:09:48;101492.19;;;2.26;58.52
47218;BME280;47282;53.362;-2.222;2022-09-17T06:12:16;101490.60;;;2.14;58.50
47218;BME280;47282;53.362;-2.222;2022-09-17T06:14:44;101487.45;;;2.46;58.49
47218;BME280;47282;53.362;-2.222;2022-09-17T06:17:12;101483.81;;;2.83;58.49
47218;BME280;47282;53.362;-2.222;2022-09-17T06:19:41;101484.83;;;2.42;58.46
47218;BME280;47282;53.362;-2.222;2022-09-17T06:22:09;101484.99;;;2.48;58.47
47218;BME280;47282;53.362;-2.222;2022-09-17T06:24:37;101487.71;;;3.04;58.40
47218;BME280;47282;53.362;-2.222;2022-09-17T06:27:05;101490.53;;;2.65;58.28
47218;BME280;47282;53.362;-2.222;2022-09-17T06:29:33;101492.62;;;2.75;58.16
47218;BME280;47282;53.362;-2.222;2022-09-17T06:32:01;101495.22;;;2.91;57.96
47218;BME280;47282;53.362;-2.222;2022-09-17T06:34:29;101498.15;;;3.13;57.78
47218;BME280;47282;53.362;-2.222;2022-09-17T06:36:57;101504.71;;;3.57;57.41
47218;BME280;47282;53.362;-2.222;2022-09-17T06:39:25;101506.23;;;3.87;57.02
47218;BME280;47282;53.362;-2.222;2022-09-17T06:41:53;101508.14;;;3.99;56.99
47218;BME280;47282;53.362;-2.222;2022-09-17T06:44:21;101512.30;;;4.39;56.70
47218;BME280;47282;53.362;-2.222;2022-09-17T06:46:49;101512.16;;;4.73;56.49
47218;BME280;47282;53.362;-2.222;2022-09-17T06:49:17;101514.77;;;5.00;56.36
47218;BME280;47282;53.362;-2.222;2022-09-17T06:51:45;101517.47;;;5.48;55.95
47218;BME280;47282;53.362;-2.222;2022-09-17T06:54:13;101519.66;;;5.80;55.04
47218;BME280;47282;53.362;-2.222;2022-09-17T06:56:42;101519.91;;;10.86;47.11
47218;BME280;47282;53.362;-2.222;2022-09-17T06:59:12;101522.30;;;15.77;41.06
47218;BME280;47282;53.362;-2.222;2022-09-17T07:01:41;101518.56;;;19.05;37.65
47218;BME280;47282;53.362;-2.222;2022-09-17T07:04:09;101524.92;;;20.02;37.08
47218;BME280;47282;53.362;-2.222;2022-09-17T07:06:37;101518.69;;;21.99;35.06
47218;BME280;47282;53.362;-2.222;2022-09-17T07:09:05;101527.47;;;24.28;32.71
47218;BME280;47282;53.362;-2.222;2022-09-17T07:11:33;101518.70;;;20.78;36.66
47218;BME280;47282;53.362;-2.222;2022-09-17T07:14:01;101518.41;;;21.22;36.26
47218;BME280;47282;53.362;-2.222;2022-09-17T07:16:29;101523.71;;;26.19;31.01
47218;BME280;47282;53.362;-2.222;2022-09-17T07:18:57;101529.13;;;29.42;28.02
47218;BME280;47282;53.362;-2.222;2022-09-17T07:21:25;101531.67;;;31.87;26.33
47218;BME280;47282;53.362;-2.222;2022-09-17T07:23:53;101532.19;;;29.11;29.03
47218;BME280;47282;53.362;-2.222;2022-09-17T07:26:21;101527.51;;;25.22;32.36
47218;BME280;47282;53.362;-2.222;2022-09-17T07:28:49;101530.64;;;26.11;31.06
47218;BME280;47282;53.362;-2.222;2022-09-17T07:31:17;101531.76;;;28.90;28.11
47218;BME280;47282;53.362;-2.222;2022-09-17T07:33:45;101529.99;;;27.71;29.49
47218;BME280;47282;53.362;-2.222;2022-09-17T07:36:15;101530.56;;;24.44;31.89
47218;BME280;47282;53.362;-2.222;2022-09-17T07:38:43;101543.23;;;29.87;26.77
47218;BME280;47282;53.362;-2.222;2022-09-17T07:41:13;101542.84;;;28.87;27.77
47218;BME280;47282;53.362;-2.222;2022-09-17T07:43:42;101539.74;;;28.01;28.52
47218;BME280;47282;53.362;-2.222;2022-09-17T07:46:13;101539.45;;;23.97;31.95
47218;BME280;47282;53.362;-2.222;2022-09-17T07:48:42;101542.57;;;30.67;25.91
47218;BME280;47282;53.362;-2.222;2022-09-17T07:51:14;101541.76;;;34.31;22.98
47218;BME280;47282;53.362;-2.222;2022-09-17T07:53:43;101536.66;;;35.21;22.36
47218;BME280;47282;53.362;-2.222;2022-09-17T07:56:11;101524.92;;;37.53;20.97
47218;BME280;47282;53.362;-2.222;2022-09-17T07:58:39;101530.06;;;39.06;19.77
47218;BME280;47282;53.362;-2.222;2022-09-17T08:01:09;101525.61;;;40.44;19.10
47218;BME280;47282;53.362;-2.222;2022-09-17T08:03:38;101523.36;;;41.65;18.36
47218;BME280;47282;53.362;-2.222;2022-09-17T08:06:09;101529.55;;;42.59;17.71
47218;BME280;47282;53.362;-2.222;2022-09-17T08:08:37;101528.62;;;43.41;17.28
47218;BME280;47282;53.362;-2.222;2022-09-17T08:11:08;101525.59;;;43.93;16.87
47218;BME280;47282;53.362;-2.222;2022-09-17T08:13:37;101525.87;;;44.10;16.64
47218;BME280;47282;53.362;-2.222;2022-09-17T08:16:06;101526.00;;;44.53;16.43
47218;BME280;47282;53.362;-2.222;2022-09-17T08:18:35;101524.69;;;44.49;16.31
47218;BME280;47282;53.362;-2.222;2022-09-17T08:21:05;101524.48;;;43.72;16.81
47218;BME280;47282;53.362;-2.222;2022-09-17T08:23:35;101523.86;;;44.56;15.80
47218;BME280;47282;53.362;-2.222;2022-09-17T08:26:04;101520.59;;;45.55;15.28
47218;BME280;47282;53.362;-2.222;2022-09-17T08:28:33;101517.37;;;45.95;14.91
47218;BME280;47282;53.362;-2.222;2022-09-17T08:31:05;101515.49;;;46.76;13.67
47218;BME280;47282;53.362;-2.222;2022-09-17T08:33:35;101515.92;;;47.84;12.88
47218;BME280;47282;53.362;-2.222;2022-09-17T08:36:05;101512.83;;;48.59;12.43
47218;BME280;47282;53.362;-2.222;2022-09-17T08:38:35;101508.28;;;49.37;11.86
47218;BME280;47282;53.362;-2.222;2022-09-17T08:41:15;101506.04;;;49.87;11.30
47218;BME280;47282;53.362;-2.222;2022-09-17T08:43:51;101513.79;;;50.32;10.75
47218;BME280;47282;53.362;-2.222;2022-09-17T08:46:24;101517.62;;;50.55;10.71
47218;BME280;47282;53.362;-2.222;2022-09-17T08:49:00;101519.92;;;51.26;10.34
47218;BME280;47282;53.362;-2.222;2022-09-17T08:51:37;101523.01;;;51.51;9.91
47218;BME280;47282;53.362;-2.222;2022-09-17T08:54:14;101528.77;;;51.60;10.06
47218;BME280;47282;53.362;-2.222;2022-09-17T08:56:53;101531.83;;;51.76;9.44
47218;BME280;47282;53.362;-2.222;2022-09-17T08:59:31;101532.99;;;52.14;9.61
47218;BME280;47282;53.362;-2.222;2022-09-17T09:02:05;101529.92;;;52.19;9.75
47218;BME280;47282;53.362;-2.222;2022-09-17T09:05:02;101526.63;;;52.22;9.51
47218;BME280;47282;53.362;-2.222;2022-09-17T09:07:36;101523.28;;;52.53;8.92
47218;BME280;47282;53.362;-2.222;2022-09-17T09:10:14;101518.37;;;52.93;8.46
47218;BME280;47282;53.362;-2.222;2022-09-17T09:12:44;101519.98;;;53.58;8.29
47218;BME280;47282;53.362;-2.222;2022-09-17T09:15:24;101513.02;;;53.73;7.81
47218;BME280;47282;53.362;-2.222;2022-09-17T09:17:56;101510.35;;;53.95;7.40
47218;BME280;47282;53.362;-2.222;2022-09-17T09:20:30;101510.00;;;53.99;7.27
47218;BME280;47282;53.362;-2.222;2022-09-17T09:23:12;101512.47;;;53.78;7.36
47218;BME280;47282;53.362;-2.222;2022-09-17T09:25:51;101514.91;;;53.04;7.35
47218;BME280;47282;53.362;-2.222;2022-09-17T09:28:33;101515.61;;;52.52;7.54
47218;BME280;47282;53.362;-2.222;2022-09-17T09:31:15;101514.67;;;51.77;7.79
47218;BME280;47282;53.362;-2.222;2022-09-17T09:33:49;101521.02;;;51.17;7.81
47218;BME280;47282;53.362;-2.222;2022-09-17T09:36:18;101516.31;;;48.05;8.53
47218;BME280;47282;53.362;-2.222;2022-09-17T09:38:51;101513.43;;;42.42;10.80
47218;BME280;47282;53.362;-2.222;2022-09-17T09:41:26;101503.59;;;39.24;12.33
47218;BME280;47282;53.362;-2.222;2022-09-17T09:44:00;101501.20;;;36.64;13.43
47218;BME280;47282;53.362;-2.222;2022-09-17T09:46:38;101493.58;;;34.40;14.29
47218;BME280;47282;53.362;-2.222;2022-09-17T09:49:20;101498.43;;;32.58;15.18
47218;BME280;47282;53.362;-2.222;2022-09-17T09:51:59;101494.23;;;30.97;15.85
47218;BME280;47282;53.362;-2.222;2022-09-17T09:54:43;101496.17;;;29.94;16.32
47218;BME280;47282;53.362;-2.222;2022-09-17T09:57:18;101500.79;;;28.74;16.73
47218;BME280;47282;53.362;-2.222;2022-09-17T09:59:49;101507.79;;;30.84;15.46
47218;BME280;47282;53.362;-2.222;2022-09-17T10:02:17;101512.94;;;35.46;12.84
47218;BME280;47282;53.362;-2.222;2022-09-17T10:04:45;101514.07;;;37.46;11.72
47218;BME280;47282;53.362;-2.222;2022-09-17T10:07:13;101507.49;;;39.09;11.23
47218;BME280;47282;53.362;-2.222;2022-09-17T10:09:44;101503.22;;;38.83;11.39
47218;BME280;47282;53.362;-2.222;2022-09-17T10:12:17;101494.79;;;40.24;10.72
47218;BME280;47282;53.362;-2.222;2022-09-17T10:14:45;101495.14;;;40.79;10.35
47218;BME280;47282;53.362;-2.222;2022-09-17T10:17:18;101488.44;;;40.65;10.37
47218;BME280;47282;53.362;-2.222;2022-09-17T10:20:07;101491.71;;;41.02;10.56
47218;BME280;47282;53.362;-2.222;2022-09-17T10:22:37;101490.24;;;40.62;10.77
47218;BME280;47282;53.362;-2.222;2022-09-17T10:25:19;101491.47;;;41.26;10.75
47218;BME280;47282;53.362;-2.222;2022-09-17T10:27:50;101493.25;;;41.76;10.07
47218;BME280;47282;53.362;-2.222;2022-09-17T10:30:18;101495.03;;;40.96;9.80
47218;BME280;47282;53.362;-2.222;2022-09-17T10:33:11;101496.13;;;41.23;9.64
47218;BME280;47282;53.362;-2.222;2022-09-17T10:35:54;101491.66;;;41.65;9.60
47218;BME280;47282;53.362;-2.222;2022-09-17T10:38:28;101490.44;;;41.65;9.73
47218;BME280;47282;53.362;-2.222;2022-09-17T10:41:30;101486.85;;;41.39;9.81
47218;BME280;47282;53.362;-2.222;2022-09-17T10:44:16;101491.23;;;41.47;9.64
47218;BME280;47282;53.362;-2.222;2022-09-17T10:46:44;101481.32;;;40.81;9.98
47218;BME280;47282;53.362;-2.222;2022-09-17T10:49:33;101481.13;;;40.71;9.97
47218;BME280;47282;53.362;-2.222;2022-09-17T10:52:05;101477.41;;;40.38;10.21
47218;BME280;47282;53.362;-2.222;2022-09-17T10:54:51;101488.02;;;40.50;10.15
47218;BME280;47282;53.362;-2.222;2022-09-17T10:57:34;101482.61;;;40.11;9.89
47218;BME280;47282;53.362;-2.222;2022-09-17T11:00:11;101480.35;;;40.43;9.75
47218;BME280;47282;53.362;-2.222;2022-09-17T11:04:08;101483.51;;;39.92;9.97
47218;BME280;47282;53.362;-2.222;2022-09-17T11:06:54;101485.99;;;40.36;9.85
47218;BME280;47282;53.362;-2.222;2022-09-17T11:09:34;101487.22;;;40.01;9.75
47218;BME280;47282;53.362;-2.222;2022-09-17T11:12:19;101492.06;;;40.08;9.94
47218;BME280;47282;53.362;-2.222;2022-09-17T11:14:58;101487.17;;;39.32;10.16
47218;BME280;47282;53.362;-2.222;2022-09-17T11:17:50;101493.41;;;39.31;10.13
47218;BME280;47282;53.362;-2.222;2022-09-17T11:20:28;101477.07;;;37.82;10.92
47218;BME280;47282;53.362;-2.222;2022-09-17T11:23:07;101483.88;;;37.14;11.16
47218;BME280;47282;53.362;-2.222;2022-09-17T11:25:50;101488.39;;;36.71;11.22
47218;BME280;47282;53.362;-2.222;2022-09-17T11:28:34;101482.39;;;37.26;10.97
47218;BME280;47282;53.362;-2.222;2022-09-17T11:31:18;101478.16;;;36.81;11.11
47218;BME280;47282;53.362;-2.222;2022-09-17T11:34:03;101477.03;;;35.96;11.57
47218;BME280;47282;53.362;-2.222;2022-09-17T11:36:43;101472.12;;;35.83;11.65
47218;BME280;47282;53.362;-2.222;2022-09-17T11:39:16;101472.86;;;35.46;11.80
47218;BME280;47282;53.362;-2.222;2022-09-17T11:41:49;101467.48;;;35.64;11.62
47218;BME280;47282;53.362;-2.222;2022-09-17T11:44:23;101463.37;;;36.44;11.55
47218;BME280;47282;53.362;-2.222;2022-09-17T11:46:58;101468.53;;;35.64;11.88
47218;BME280;47282;53.362;-2.222;2022-09-17T11:49:33;101459.67;;;35.82;11.73
47218;BME280;47282;53.362;-2.222;2022-09-17T11:52:07;101459.38;;;36.31;11.55
47218;BME280;47282;53.362;-2.222;2022-09-17T11:54:39;101461.51;;;35.98;11.43
47218;BME280;47282;53.362;-2.222;2022-09-17T11:57:12;101460.53;;;36.17;11.46
47218;BME280;47282;53.362;-2.222;2022-09-17T11:59:45;101458.06;;;36.44;11.33
47218;BME280;47282;53.362;-2.222;2022-09-17T12:02:21;101461.52;;;36.22;11.45
47218;BME280;47282;53.362;-2.222;2022-09-17T12:04:56;101456.68;;;36.33;11.72
47218;BME280;47282;53.362;-2.222;2022-09-17T12:07:34;101457.90;;;36.54;11.77
47218;BME280;47282;53.362;-2.222;2022-09-17T12:10:18;101447.63;;;32.99;13.63
47218;BME280;47282;53.362;-2.222;2022-09-17T12:12:51;101450.96;;;29.95;14.97
47218;BME280;47282;53.362;-2.222;2022-09-17T12:15:23;101452.85;;;32.46;13.70
47218;BME280;47282;53.362;-2.222;2022-09-17T12:17:58;101446.95;;;33.41;13.34
47218;BME280;47282;53.362;-2.222;2022-09-17T12:20:32;101446.22;;;30.84;14.62
47218;BME280;47282;53.362;-2.222;2022-09-17T12:23:05;101442.60;;;28.92;15.68
47218;BME280;47282;53.362;-2.222;2022-09-17T12:25:44;101441.02;;;31.32;14.56
47218;BME280;47282;53.362;-2.222;2022-09-17T12:28:18;101440.57;;;30.96;14.76
47218;BME280;47282;53.362;-2.222;2022-09-17T12:30:54;101439.29;;;30.45;15.06
47218;BME280;47282;53.362;-2.222;2022-09-17T12:33:29;101433.34;;;31.09;14.76
47218;BME280;47282;53.362;-2.222;2022-09-17T12:36:12;101434.90;;;31.36;14.59
47218;BME280;47282;53.362;-2.222;2022-09-17T12:38:56;101426.08;;;28.86;16.04
47218;BME280;47282;53.362;-2.222;2022-09-17T12:41:34;101428.83;;;28.08;16.51
47218;BME280;47282;53.362;-2.222;2022-09-17T12:44:19;101422.36;;;30.34;15.35
47218;BME280;47282;53.362;-2.222;2022-09-17T12:47:04;101424.55;;;30.52;15.07
47218;BME280;47282;53.362;-2.222;2022-09-17T12:49:47;101423.62;;;30.87;15.02
47218;BME280;47282;53.362;-2.222;2022-09-17T12:52:27;101419.67;;;30.76;15.10
47218;BME280;47282;53.362;-2.222;2022-09-17T12:55:12;101413.07;;;28.55;16.30
47218;BME280;47282;53.362;-2.222;2022-09-17T12:57:54;101421.93;;;27.26;17.21
47218;BME280;47282;53.362;-2.222;2022-09-17T13:00:26;101416.36;;;26.86;17.53
47218;BME280;47282;53.362;-2.222;2022-09-17T13:03:01;101411.99;;;26.22;17.87
47218;BME280;47282;53.362;-2.222;2022-09-17T13:06:01;101415.44;;;25.96;18.12
47218;BME280;47282;53.362;-2.222;2022-09-17T13:08:42;101418.77;;;26.14;18.20
47218;BME280;47282;53.362;-2.222;2022-09-17T13:12:25;101414.98;;;26.22;18.39
47218;BME280;47282;53.362;-2.222;2022-09-17T13:15:09;101422.75;;;26.29;18.60
47218;BME280;47282;53.362;-2.222;2022-09-17T13:17:51;101420.60;;;26.52;18.69
47218;BME280;47282;53.362;-2.222;2022-09-17T13:20:25;101420.79;;;26.40;18.68